createdAt,value
2023-02-15T00:02:04.765Z,67.02
2023-02-15T00:06:09.504Z,67.04
2023-02-15T00:10:13.148Z,66.96
2023-02-15T00:14:18.302Z,66.89
2023-02-15T00:18:21.211Z,67.00
2023-02-15T00:22:25.586Z,66.96
2023-02-15T00:26:29.327Z,66.93
2023-02-15T00:30:34.038Z,66.97
2023-02-15T00:34:37.599Z,66.82
2023-02-15T00:38:42.193Z,66.92
2023-02-15T00:42:45.174Z,66.76
2023-02-15T00:46:48.268Z,66.67
2023-02-15T00:50:52.699Z,66.60
2023-02-15T00:54:57.713Z,66.79
2023-02-15T00:59:00.714Z,67.07
2023-02-15T01:03:03.802Z,67.03
2023-02-15T01:07:06.938Z,67.12
2023-02-15T01:11:13.616Z,66.98
2023-02-15T01:15:16.591Z,66.93
2023-02-15T01:19:19.608Z,67.01
2023-02-15T01:23:22.882Z,67.02
2023-02-15T01:27:27.293Z,67.00
2023-02-15T01:31:30.338Z,66.94
2023-02-15T01:35:33.778Z,66.79
2023-02-15T01:39:36.708Z,67.33
2023-02-15T01:43:46.827Z,67.50
2023-02-15T01:47:54.950Z,67.58
2023-02-15T01:52:00.053Z,67.68
2023-02-15T01:56:07.521Z,67.93
2023-02-15T02:00:13.212Z,67.91
2023-02-15T02:04:20.884Z,67.76
2023-02-15T02:08:24.225Z,67.74
2023-02-15T02:12:27.911Z,67.82
2023-02-15T02:16:41.840Z,67.86
2023-02-15T02:21:27.994Z,67.85
2023-02-15T02:26:01.732Z,67.63
2023-02-15T02:30:29.808Z,67.73
2023-02-15T02:34:40.659Z,67.96
2023-02-15T02:38:55.227Z,67.91
2023-02-15T02:43:03.978Z,67.54
2023-02-15T02:47:13.021Z,67.74
2023-02-15T02:51:22.423Z,67.71
2023-02-15T02:55:32.244Z,67.84
2023-02-15T02:59:41.616Z,67.79
2023-02-15T03:03:49.184Z,67.79
2023-02-15T03:07:55.723Z,67.79
2023-02-15T03:11:59.252Z,67.87
2023-02-15T03:16:21.300Z,67.87
2023-02-15T03:20:29.395Z,67.94
2023-02-15T03:24:37.209Z,67.69
2023-02-15T03:28:45.997Z,67.98
2023-02-15T03:32:50.795Z,67.96
2023-02-15T03:37:00.104Z,67.90
2023-02-15T03:41:12.691Z,68.10
2023-02-15T03:45:19.803Z,67.92
2023-02-15T03:49:26.556Z,67.76
2023-02-15T03:53:29.750Z,67.84
2023-02-15T03:57:56.292Z,67.59
2023-02-15T04:02:13.493Z,67.74
2023-02-15T04:06:16.619Z,67.53
2023-02-15T04:10:37.208Z,67.76
2023-02-15T04:14:59.515Z,67.76
2023-02-15T04:19:19.862Z,67.85
2023-02-15T04:23:40.189Z,67.86
2023-02-15T04:27:44.830Z,67.69
2023-02-15T04:31:49.831Z,67.70
2023-02-15T04:35:52.847Z,67.84
2023-02-15T04:39:55.928Z,67.70
2023-02-15T04:43:58.844Z,68.07
2023-02-15T04:48:03.217Z,67.84
2023-02-15T04:52:06.346Z,67.98
2023-02-15T04:56:09.560Z,67.82
2023-02-15T05:00:13.210Z,67.86
2023-02-15T05:04:18.079Z,67.75
2023-02-15T05:08:21.049Z,67.79
2023-02-15T05:12:24.084Z,67.70
2023-02-15T05:16:28.701Z,67.78
2023-02-15T05:20:33.272Z,67.66
2023-02-15T05:24:53.914Z,67.72
2023-02-15T05:28:56.910Z,67.75
2023-02-15T05:32:59.844Z,67.58
2023-02-15T05:37:04.259Z,67.63
2023-02-15T05:41:07.410Z,67.77
2023-02-15T05:45:10.822Z,67.68
2023-02-15T05:49:13.859Z,67.83
2023-02-15T05:53:18.223Z,67.74
2023-02-15T05:57:21.283Z,67.73
2023-02-15T06:01:24.580Z,67.50
2023-02-15T06:05:27.819Z,67.20
2023-02-15T06:09:32.244Z,66.99
2023-02-15T06:13:38.531Z,67.04
2023-02-15T06:17:43.482Z,67.48
2023-02-15T06:21:46.547Z,67.34
2023-02-15T06:25:50.981Z,67.33
2023-02-15T06:29:53.928Z,67.51
2023-02-15T06:34:01.908Z,67.50
2023-02-15T06:38:04.872Z,67.70
2023-02-15T06:42:09.253Z,67.45
2023-02-15T06:46:12.212Z,67.40
2023-02-15T06:50:15.265Z,67.47
2023-02-15T06:54:18.269Z,67.28
2023-02-15T06:58:22.685Z,67.26
2023-02-15T07:02:25.795Z,66.90
2023-02-15T07:06:33.339Z,66.90
2023-02-15T07:10:36.260Z,67.02
2023-02-15T07:14:41.583Z,66.86
2023-02-15T07:18:44.671Z,67.06
2023-02-15T07:22:48.084Z,67.36
2023-02-15T07:26:51.031Z,67.48
2023-02-15T07:30:55.700Z,67.63
2023-02-15T07:34:59.386Z,67.48
2023-02-15T07:39:02.423Z,67.41
2023-02-15T07:43:05.497Z,67.62
2023-02-15T07:47:09.887Z,67.57
2023-02-15T07:51:15.381Z,67.27
2023-02-15T07:55:19.553Z,67.24
2023-02-15T07:59:22.541Z,67.45
2023-02-15T08:03:28.081Z,67.38
2023-02-15T08:07:31.243Z,67.01
2023-02-15T08:11:37.534Z,67.41
2023-02-15T08:15:40.499Z,67.03
2023-02-15T08:19:45.066Z,66.70
2023-02-15T08:23:48.569Z,66.98
2023-02-15T08:27:51.767Z,66.27
2023-02-15T08:31:56.617Z,66.63
2023-02-15T08:36:04.900Z,66.81
2023-02-15T08:40:09.153Z,66.97
2023-02-15T08:44:12.774Z,66.95
2023-02-15T08:48:15.760Z,67.05
2023-02-15T08:52:20.143Z,67.26
2023-02-15T08:56:25.706Z,66.74
2023-02-15T09:00:29.380Z,66.46
2023-02-15T09:04:32.586Z,66.51
2023-02-15T09:08:37.653Z,66.88
2023-02-15T09:12:40.697Z,66.69
2023-02-15T09:16:47.375Z,66.57
2023-02-15T09:20:50.422Z,66.29
2023-02-15T09:24:54.956Z,66.25
2023-02-15T09:28:59.861Z,66.13
2023-02-15T09:33:03.067Z,66.24
2023-02-15T09:37:07.481Z,66.53
2023-02-15T09:41:28.531Z,66.09
2023-02-15T09:45:43.307Z,65.68
2023-02-15T09:49:52.860Z,65.99
2023-02-15T09:54:12.351Z,66.00
2023-02-15T09:58:22.432Z,66.23
2023-02-15T10:02:40.738Z,65.68
2023-02-15T10:06:57.879Z,65.72
2023-02-15T10:11:25.075Z,65.88
2023-02-15T10:15:45.010Z,65.50
2023-02-15T10:20:06.534Z,65.45
2023-02-15T10:24:40.536Z,65.31
2023-02-15T10:28:48.917Z,65.25
2023-02-15T10:33:01.655Z,65.17
2023-02-15T10:37:41.296Z,65.38
2023-02-15T10:41:54.133Z,65.31
2023-02-15T10:46:05.012Z,65.04
2023-02-15T10:50:40.343Z,65.02
2023-02-15T10:54:50.999Z,64.94
2023-02-15T10:59:09.112Z,65.28
2023-02-15T11:03:34.685Z,65.57
2023-02-15T11:07:42.852Z,65.43
2023-02-15T11:11:51.439Z,65.08
2023-02-15T11:15:58.426Z,65.00
2023-02-15T11:20:09.986Z,64.84
2023-02-15T11:24:14.792Z,64.81
2023-02-15T11:28:26.989Z,64.84
2023-02-15T11:32:32.824Z,64.77
2023-02-15T11:36:40.096Z,64.70
2023-02-15T11:40:48.401Z,64.47
2023-02-15T11:45:00.958Z,64.95
2023-02-15T11:49:04.046Z,65.02
2023-02-15T11:53:13.321Z,65.33
2023-02-15T11:57:21.304Z,65.15
2023-02-15T12:01:33.927Z,65.18
2023-02-15T12:05:41.407Z,64.51
2023-02-15T12:09:50.282Z,64.43
2023-02-15T12:13:58.350Z,65.03
2023-02-15T12:18:02.902Z,65.05
2023-02-15T12:22:10.343Z,64.86
2023-02-15T12:26:14.870Z,64.84
2023-02-15T12:30:24.244Z,65.17
2023-02-15T12:34:32.326Z,65.13
2023-02-15T12:38:36.776Z,64.88
2023-02-15T12:42:45.408Z,64.97
2023-02-15T12:47:00.096Z,64.79
2023-02-15T12:51:11.670Z,64.62
2023-02-15T12:55:23.940Z,64.47
2023-02-15T12:59:27.593Z,64.23
2023-02-15T13:03:30.687Z,64.36
2023-02-15T13:07:35.275Z,64.44
2023-02-15T13:11:39.264Z,64.20
2023-02-15T13:15:46.604Z,64.28
2023-02-15T13:19:52.820Z,64.33
2023-02-15T13:24:02.167Z,64.44
2023-02-15T13:28:07.232Z,64.64
2023-02-15T13:32:23.642Z,64.08
2023-02-15T13:36:33.931Z,64.06
2023-02-15T13:40:46.220Z,64.14
2023-02-15T13:45:12.526Z,64.02
2023-02-15T13:49:26.328Z,63.70
2023-02-15T13:53:53.047Z,63.91
2023-02-15T13:58:37.843Z,63.50
2023-02-15T14:03:02.800Z,63.40
2023-02-15T14:07:26.125Z,63.44
2023-02-15T14:11:37.546Z,63.31
2023-02-15T14:15:46.715Z,63.33
2023-02-15T14:19:56.676Z,63.00
2023-02-15T14:24:14.597Z,63.33
2023-02-15T14:28:22.987Z,63.08
2023-02-15T14:32:33.583Z,63.33
2023-02-15T14:36:38.147Z,63.72
2023-02-15T14:41:03.384Z,63.87
2023-02-15T14:45:19.228Z,64.01
2023-02-15T14:49:25.148Z,64.21
2023-02-15T14:53:47.149Z,64.69
2023-02-15T14:58:00.568Z,64.58
2023-02-15T15:02:14.112Z,65.35
2023-02-15T15:06:27.721Z,65.63
2023-02-15T15:10:44.415Z,65.42
2023-02-15T15:14:47.338Z,65.19
2023-02-15T15:18:51.266Z,64.97
2023-02-15T15:23:34.712Z,65.50
2023-02-15T15:27:47.003Z,65.42
2023-02-15T15:31:57.199Z,65.50
2023-02-15T15:36:19.575Z,66.20
2023-02-15T15:40:50.452Z,66.26
2023-02-15T15:45:36.207Z,66.55
2023-02-15T15:49:40.730Z,66.53
2023-02-15T15:53:49.974Z,66.74
2023-02-15T15:57:55.624Z,66.79
2023-02-15T16:02:06.422Z,66.94
2023-02-15T16:06:15.789Z,67.08
2023-02-15T16:10:24.519Z,67.18
2023-02-15T16:14:30.986Z,67.45
2023-02-15T16:18:39.867Z,67.48
2023-02-15T16:22:43.120Z,67.65
2023-02-15T16:27:17.583Z,67.85
2023-02-15T16:31:23.189Z,67.76
2023-02-15T16:35:28.265Z,67.92
2023-02-15T16:39:35.070Z,68.02
2023-02-15T16:43:39.700Z,68.05
2023-02-15T16:47:47.989Z,68.30
2023-02-15T16:52:01.183Z,68.32
2023-02-15T16:56:07.321Z,68.45
2023-02-15T17:00:21.777Z,68.55
2023-02-15T17:04:33.223Z,68.68
2023-02-15T17:08:44.712Z,68.75
2023-02-15T17:12:49.707Z,68.66
2023-02-15T17:16:57.410Z,68.81
2023-02-15T17:21:03.834Z,68.93
2023-02-15T17:25:08.673Z,68.83
2023-02-15T17:29:21.658Z,68.93
2023-02-15T17:33:30.102Z,68.82
2023-02-15T17:37:44.454Z,68.99
2023-02-15T17:41:48.958Z,69.20
2023-02-15T17:45:53.304Z,69.20
2023-02-15T17:49:56.549Z,69.14
2023-02-15T17:54:16.711Z,69.50
2023-02-15T17:58:22.479Z,69.28
2023-02-15T18:02:43.148Z,69.36
2023-02-15T18:07:03.900Z,69.23
2023-02-15T18:11:24.134Z,69.45
2023-02-15T18:15:28.799Z,69.52
2023-02-15T18:19:32.780Z,69.63
2023-02-15T18:23:35.811Z,69.83
2023-02-15T18:27:38.735Z,70.00
2023-02-15T18:31:44.251Z,69.98
2023-02-15T18:35:49.240Z,69.83
2023-02-15T18:39:54.376Z,69.88
2023-02-15T18:43:57.504Z,69.79
2023-02-15T18:48:02.208Z,69.64
2023-02-15T18:52:05.487Z,69.59
2023-02-15T18:56:13.940Z,69.48
2023-02-15T19:00:19.385Z,69.37
2023-02-15T19:04:25.801Z,69.46
2023-02-15T19:08:29.516Z,69.57
2023-02-15T19:12:32.939Z,69.74
2023-02-15T19:16:37.708Z,69.88
2023-02-15T19:20:45.106Z,69.67
2023-02-15T19:24:49.057Z,69.74
2023-02-15T19:28:52.327Z,69.41
2023-02-15T19:32:55.509Z,69.52
2023-02-15T19:37:00.440Z,69.65
2023-02-15T19:41:07.379Z,70.04
2023-02-15T19:45:15.512Z,69.77
2023-02-15T19:49:18.727Z,69.77
2023-02-15T19:53:25.809Z,69.56
2023-02-15T19:57:29.050Z,69.77
2023-02-15T20:01:32.098Z,69.81
2023-02-15T20:05:38.376Z,69.86
2023-02-15T20:09:43.653Z,69.69
2023-02-15T20:13:47.645Z,69.75
2023-02-15T20:17:51.278Z,69.97
2023-02-15T20:21:55.028Z,70.19
2023-02-15T20:26:02.263Z,70.39
2023-02-15T20:30:08.336Z,70.26
2023-02-15T20:34:11.900Z,70.08
2023-02-15T20:38:20.465Z,70.40
2023-02-15T20:42:24.880Z,70.75
2023-02-15T20:46:28.027Z,70.95
2023-02-15T20:50:33.690Z,70.98
2023-02-15T20:54:38.050Z,70.91
2023-02-15T20:58:42.524Z,70.89
2023-02-15T21:02:46.751Z,70.85
2023-02-15T21:06:49.884Z,70.88
2023-02-15T21:10:54.568Z,70.90
2023-02-15T21:14:59.246Z,70.81
2023-02-15T21:19:02.174Z,70.61
2023-02-15T21:23:07.137Z,70.93
2023-02-15T21:27:14.370Z,70.50
2023-02-15T21:31:20.703Z,70.60
2023-02-15T21:35:24.225Z,70.75
2023-02-15T21:39:30.714Z,70.78
2023-02-15T21:43:51.077Z,70.65
2023-02-15T21:47:55.503Z,70.21
2023-02-15T21:52:14.287Z,69.87
2023-02-15T21:56:19.554Z,69.94
2023-02-15T22:00:24.624Z,70.25
2023-02-15T22:04:31.172Z,70.45
2023-02-15T22:08:35.199Z,70.77
2023-02-15T22:12:38.936Z,70.96
2023-02-15T22:16:42.134Z,70.87
2023-02-15T22:20:46.626Z,70.63
2023-02-15T22:24:49.557Z,70.68
2023-02-15T22:28:52.835Z,70.59
2023-02-15T22:32:57.716Z,70.36
2023-02-15T22:37:03.263Z,70.13
2023-02-15T22:41:06.652Z,70.61
2023-02-15T22:45:16.925Z,70.59
2023-02-15T22:49:20.196Z,70.49
2023-02-15T22:53:24.679Z,70.83
2023-02-15T22:57:32.063Z,70.72
2023-02-15T23:01:36.993Z,70.77
2023-02-15T23:05:40.017Z,70.80
2023-02-15T23:09:44.779Z,70.84
2023-02-15T23:13:49.747Z,70.89
2023-02-15T23:17:52.981Z,70.99
2023-02-15T23:21:56.063Z,70.96
2023-02-15T23:26:03.150Z,70.99
2023-02-15T23:30:14.284Z,71.20
2023-02-15T23:34:20.945Z,71.09
2023-02-15T23:38:27.335Z,70.97
2023-02-15T23:42:34.643Z,70.84
2023-02-15T23:46:42.620Z,70.79
2023-02-15T23:50:45.725Z,70.81
2023-02-15T23:54:48.647Z,71.14
2023-02-15T23:58:53.096Z,71.03
